Terminal Aerodrome Forecast
Issued by NWS

Home | Current Version | Previous Version | Text Only | Print | Product List | Glossary On
Versions: 1 2 3 4 5 6 7 8 9 10 11 12 13 14 15 16 17 18 19
000
FTUS46 KSEW 220500
TAFHQM
TAF
KHQM 220520Z 2206/2306 25011KT P6SM BKN030
     FM220700 28012KT P6SM -SHRA SCT015 BKN030
     FM221400 24012KT P6SM -SHRA BKN015 BKN025
     FM221900 26012KT P6SM VCSH SCT015 BKN035=

USA.gov is the U.S. government's official web portal to all federal, state and local government web resources and services.